sensor_id;sensor_type;location;lat;lon;timestamp;P1;durP1;ratioP1;P2;durP2;ratioP2
1336;SDS011;662;48.814;9.318;2023-02-28T00:00:14;4.03;;;3.73;;
1336;SDS011;662;48.814;9.318;2023-02-28T00:02:43;3.90;;;3.50;;
1336;SDS011;662;48.814;9.318;2023-02-28T00:05:10;6.30;;;3.77;;
1336;SDS011;662;48.814;9.318;2023-02-28T00:07:39;3.90;;;3.60;;
1336;SDS011;662;48.814;9.318;2023-02-28T00:10:05;4.10;;;3.23;;
1336;SDS011;662;48.814;9.318;2023-02-28T00:12:33;4.33;;;4.00;;
1336;SDS011;662;48.814;9.318;2023-02-28T00:15:00;3.97;;;3.60;;
1336;SDS011;662;48.814;9.318;2023-02-28T00:17:26;3.67;;;3.43;;
1336;SDS011;662;48.814;9.318;2023-02-28T00:19:51;4.80;;;3.80;;
1336;SDS011;662;48.814;9.318;2023-02-28T00:22:18;4.37;;;3.67;;
1336;SDS011;662;48.814;9.318;2023-02-28T00:24:44;4.53;;;3.83;;
1336;SDS011;662;48.814;9.318;2023-02-28T00:27:10;3.83;;;3.53;;
1336;SDS011;662;48.814;9.318;2023-02-28T00:29:36;4.23;;;3.60;;
1336;SDS011;662;48.814;9.318;2023-02-28T00:32:03;6.13;;;3.67;;
1336;SDS011;662;48.814;9.318;2023-02-28T00:34:31;3.97;;;3.57;;
1336;SDS011;662;48.814;9.318;2023-02-28T00:37:02;7.30;;;4.10;;
1336;SDS011;662;48.814;9.318;2023-02-28T00:39:33;5.17;;;4.57;;
1336;SDS011;662;48.814;9.318;2023-02-28T00:41:59;5.97;;;4.33;;
1336;SDS011;662;48.814;9.318;2023-02-28T00:44:25;5.43;;;3.90;;
1336;SDS011;662;48.814;9.318;2023-02-28T00:46:51;4.50;;;4.10;;
1336;SDS011;662;48.814;9.318;2023-02-28T00:49:18;5.13;;;4.27;;
1336;SDS011;662;48.814;9.318;2023-02-28T00:51:45;4.80;;;4.40;;
1336;SDS011;662;48.814;9.318;2023-02-28T00:54:11;4.97;;;4.13;;
1336;SDS011;662;48.814;9.318;2023-02-28T00:56:37;4.40;;;4.10;;
1336;SDS011;662;48.814;9.318;2023-02-28T00:59:03;5.33;;;4.13;;
1336;SDS011;662;48.814;9.318;2023-02-28T01:01:28;3.93;;;3.53;;
1336;SDS011;662;48.814;9.318;2023-02-28T01:03:54;4.40;;;4.00;;
1336;SDS011;662;48.814;9.318;2023-02-28T01:06:19;4.53;;;4.13;;
1336;SDS011;662;48.814;9.318;2023-02-28T01:08:45;4.57;;;4.27;;
1336;SDS011;662;48.814;9.318;2023-02-28T01:11:11;4.77;;;4.37;;
1336;SDS011;662;48.814;9.318;2023-02-28T01:13:40;4.67;;;4.00;;
1336;SDS011;662;48.814;9.318;2023-02-28T01:16:07;4.17;;;3.77;;
1336;SDS011;662;48.814;9.318;2023-02-28T01:18:32;4.20;;;3.80;;
1336;SDS011;662;48.814;9.318;2023-02-28T01:20:58;4.23;;;3.83;;
1336;SDS011;662;48.814;9.318;2023-02-28T01:23:29;4.80;;;4.40;;
1336;SDS011;662;48.814;9.318;2023-02-28T01:25:54;4.10;;;3.80;;
1336;SDS011;662;48.814;9.318;2023-02-28T01:28:20;5.00;;;4.50;;
1336;SDS011;662;48.814;9.318;2023-02-28T01:30:50;5.03;;;4.53;;
1336;SDS011;662;48.814;9.318;2023-02-28T01:33:16;4.77;;;4.37;;
1336;SDS011;662;48.814;9.318;2023-02-28T01:35:41;5.17;;;4.70;;
1336;SDS011;662;48.814;9.318;2023-02-28T01:38:07;5.23;;;4.80;;
1336;SDS011;662;48.814;9.318;2023-02-28T01:40:33;5.03;;;4.50;;
1336;SDS011;662;48.814;9.318;2023-02-28T01:42:58;4.27;;;3.97;;
1336;SDS011;662;48.814;9.318;2023-02-28T01:45:26;5.10;;;4.13;;
1336;SDS011;662;48.814;9.318;2023-02-28T01:47:57;4.73;;;4.23;;
1336;SDS011;662;48.814;9.318;2023-02-28T01:50:28;4.70;;;4.30;;
1336;SDS011;662;48.814;9.318;2023-02-28T01:52:59;5.43;;;4.03;;
1336;SDS011;662;48.814;9.318;2023-02-28T01:55:29;6.73;;;5.00;;
1336;SDS011;662;48.814;9.318;2023-02-28T01:57:57;4.70;;;4.30;;
1336;SDS011;662;48.814;9.318;2023-02-28T02:00:25;5.33;;;4.93;;
1336;SDS011;662;48.814;9.318;2023-02-28T02:02:53;6.73;;;5.77;;
1336;SDS011;662;48.814;9.318;2023-02-28T02:05:27;5.37;;;5.00;;
1336;SDS011;662;48.814;9.318;2023-02-28T02:07:56;4.77;;;4.43;;
1336;SDS011;662;48.814;9.318;2023-02-28T02:10:31;5.33;;;4.93;;
1336;SDS011;662;48.814;9.318;2023-02-28T02:18:37;5.10;;;4.70;;
1336;SDS011;662;48.814;9.318;2023-02-28T02:21:18;5.57;;;4.87;;
1336;SDS011;662;48.814;9.318;2023-02-28T02:32:16;5.67;;;5.17;;
1336;SDS011;662;48.814;9.318;2023-02-28T02:35:11;5.27;;;4.77;;
1336;SDS011;662;48.814;9.318;2023-02-28T02:38:05;7.17;;;5.07;;
1336;SDS011;662;48.814;9.318;2023-02-28T02:40:43;5.43;;;4.93;;
1336;SDS011;662;48.814;9.318;2023-02-28T02:43:20;5.80;;;5.30;;
1336;SDS011;662;48.814;9.318;2023-02-28T02:45:53;6.00;;;5.50;;
1336;SDS011;662;48.814;9.318;2023-02-28T02:48:24;6.87;;;5.60;;
1336;SDS011;662;48.814;9.318;2023-02-28T02:50:54;5.97;;;5.37;;
1336;SDS011;662;48.814;9.318;2023-02-28T02:53:32;5.80;;;5.30;;
1336;SDS011;662;48.814;9.318;2023-02-28T02:56:02;6.67;;;6.17;;
1336;SDS011;662;48.814;9.318;2023-02-28T02:58:37;5.73;;;5.23;;
1336;SDS011;662;48.814;9.318;2023-02-28T03:01:07;6.00;;;5.50;;
1336;SDS011;662;48.814;9.318;2023-02-28T03:03:41;6.63;;;6.10;;
1336;SDS011;662;48.814;9.318;2023-02-28T03:06:07;6.10;;;5.50;;
1336;SDS011;662;48.814;9.318;2023-02-28T03:08:34;6.83;;;6.13;;
1336;SDS011;662;48.814;9.318;2023-02-28T03:11:11;6.60;;;6.00;;
1336;SDS011;662;48.814;9.318;2023-02-28T03:13:49;6.03;;;5.53;;
1336;SDS011;662;48.814;9.318;2023-02-28T03:35:34;7.60;;;5.97;;
1336;SDS011;662;48.814;9.318;2023-02-28T03:38:11;6.57;;;6.00;;
1336;SDS011;662;48.814;9.318;2023-02-28T03:40:48;6.73;;;6.07;;
1336;SDS011;662;48.814;9.318;2023-02-28T03:43:22;6.80;;;6.13;;
1336;SDS011;662;48.814;9.318;2023-02-28T03:45:54;6.60;;;6.00;;
1336;SDS011;662;48.814;9.318;2023-02-28T03:48:24;7.80;;;7.10;;
1336;SDS011;662;48.814;9.318;2023-02-28T03:50:55;7.10;;;6.50;;
1336;SDS011;662;48.814;9.318;2023-02-28T03:53:25;7.67;;;6.43;;
1336;SDS011;662;48.814;9.318;2023-02-28T03:56:13;9.13;;;8.23;;
1336;SDS011;662;48.814;9.318;2023-02-28T03:58:57;7.60;;;6.80;;
1336;SDS011;662;48.814;9.318;2023-02-28T04:01:44;7.30;;;6.70;;
1336;SDS011;662;48.814;9.318;2023-02-28T04:04:12;7.50;;;6.80;;
1336;SDS011;662;48.814;9.318;2023-02-28T04:06:39;8.47;;;7.57;;
1336;SDS011;662;48.814;9.318;2023-02-28T04:09:06;7.43;;;6.83;;
1336;SDS011;662;48.814;9.318;2023-02-28T04:11:35;7.17;;;6.50;;
1336;SDS011;662;48.814;9.318;2023-02-28T04:14:03;7.73;;;7.00;;
1336;SDS011;662;48.814;9.318;2023-02-28T04:16:30;6.60;;;6.10;;
1336;SDS011;662;48.814;9.318;2023-02-28T04:18:56;7.43;;;6.70;;
1336;SDS011;662;48.814;9.318;2023-02-28T04:21:32;6.80;;;6.10;;
1336;SDS011;662;48.814;9.318;2023-02-28T04:23:58;7.70;;;7.00;;
1336;SDS011;662;48.814;9.318;2023-02-28T04:26:35;6.93;;;6.23;;
1336;SDS011;662;48.814;9.318;2023-02-28T04:29:03;7.73;;;7.03;;
1336;SDS011;662;48.814;9.318;2023-02-28T04:31:29;7.50;;;6.80;;
1336;SDS011;662;48.814;9.318;2023-02-28T04:33:55;8.20;;;7.40;;
1336;SDS011;662;48.814;9.318;2023-02-28T04:36:21;7.20;;;6.53;;
1336;SDS011;662;48.814;9.318;2023-02-28T04:38:48;7.37;;;6.77;;
1336;SDS011;662;48.814;9.318;2023-02-28T04:41:15;7.90;;;7.10;;
1336;SDS011;662;48.814;9.318;2023-02-28T04:43:41;7.73;;;7.07;;
1336;SDS011;662;48.814;9.318;2023-02-28T04:46:07;7.40;;;6.80;;
1336;SDS011;662;48.814;9.318;2023-02-28T04:48:35;7.57;;;6.87;;
1336;SDS011;662;48.814;9.318;2023-02-28T04:51:02;8.03;;;7.27;;
1336;SDS011;662;48.814;9.318;2023-02-28T04:53:28;7.80;;;7.10;;
1336;SDS011;662;48.814;9.318;2023-02-28T04:55:55;7.93;;;7.20;;
1336;SDS011;662;48.814;9.318;2023-02-28T04:58:21;7.93;;;7.23;;
1336;SDS011;662;48.814;9.318;2023-02-28T05:00:50;8.20;;;7.40;;
1336;SDS011;662;48.814;9.318;2023-02-28T05:03:16;9.00;;;8.07;;
1336;SDS011;662;48.814;9.318;2023-02-28T05:05:42;7.77;;;6.90;;
1336;SDS011;662;48.814;9.318;2023-02-28T05:08:07;8.20;;;7.43;;
1336;SDS011;662;48.814;9.318;2023-02-28T05:10:35;9.00;;;8.10;;
1336;SDS011;662;48.814;9.318;2023-02-28T05:13:01;8.87;;;8.07;;
1336;SDS011;662;48.814;9.318;2023-02-28T05:15:26;9.27;;;8.47;;
1336;SDS011;662;48.814;9.318;2023-02-28T05:17:52;8.20;;;7.40;;
1336;SDS011;662;48.814;9.318;2023-02-28T05:20:18;9.00;;;8.20;;
1336;SDS011;662;48.814;9.318;2023-02-28T05:22:43;9.17;;;8.27;;
1336;SDS011;662;48.814;9.318;2023-02-28T05:25:13;9.43;;;7.83;;
1336;SDS011;662;48.814;9.318;2023-02-28T05:27:45;9.23;;;8.40;;
1336;SDS011;662;48.814;9.318;2023-02-28T05:30:11;8.80;;;8.00;;
1336;SDS011;662;48.814;9.318;2023-02-28T05:32:37;8.33;;;7.53;;
1336;SDS011;662;48.814;9.318;2023-02-28T05:35:03;10.93;;;8.60;;
1336;SDS011;662;48.814;9.318;2023-02-28T05:37:29;8.77;;;7.87;;
1336;SDS011;662;48.814;9.318;2023-02-28T05:39:55;9.33;;;8.47;;
1336;SDS011;662;48.814;9.318;2023-02-28T05:42:20;8.40;;;7.70;;
1336;SDS011;662;48.814;9.318;2023-02-28T05:44:46;9.83;;;8.40;;
1336;SDS011;662;48.814;9.318;2023-02-28T05:47:12;8.73;;;7.93;;
1336;SDS011;662;48.814;9.318;2023-02-28T05:49:40;9.37;;;8.43;;
1336;SDS011;662;48.814;9.318;2023-02-28T05:52:06;8.57;;;7.57;;
1336;SDS011;662;48.814;9.318;2023-02-28T05:54:31;10.03;;;8.20;;
1336;SDS011;662;48.814;9.318;2023-02-28T05:56:57;12.67;;;8.33;;
1336;SDS011;662;48.814;9.318;2023-02-28T05:59:23;10.00;;;9.00;;
1336;SDS011;662;48.814;9.318;2023-02-28T06:01:49;8.77;;;7.80;;
1336;SDS011;662;48.814;9.318;2023-02-28T06:04:16;9.63;;;8.63;;
1336;SDS011;662;48.814;9.318;2023-02-28T06:06:47;9.80;;;8.87;;
1336;SDS011;662;48.814;9.318;2023-02-28T06:09:14;11.33;;;9.77;;
1336;SDS011;662;48.814;9.318;2023-02-28T06:11:41;9.67;;;8.87;;
1336;SDS011;662;48.814;9.318;2023-02-28T06:14:06;9.60;;;8.60;;
1336;SDS011;662;48.814;9.318;2023-02-28T06:16:38;8.90;;;8.00;;
1336;SDS011;662;48.814;9.318;2023-02-28T06:19:03;9.83;;;8.83;;
1336;SDS011;662;48.814;9.318;2023-02-28T06:21:29;10.47;;;9.47;;
1336;SDS011;662;48.814;9.318;2023-02-28T06:23:56;9.70;;;8.70;;
1336;SDS011;662;48.814;9.318;2023-02-28T06:26:24;10.00;;;9.00;;
1336;SDS011;662;48.814;9.318;2023-02-28T06:28:50;9.57;;;8.53;;
1336;SDS011;662;48.814;9.318;2023-02-28T06:31:16;9.93;;;8.90;;
1336;SDS011;662;48.814;9.318;2023-02-28T06:33:43;10.07;;;9.03;;
1336;SDS011;662;48.814;9.318;2023-02-28T06:36:10;9.73;;;8.80;;
1336;SDS011;662;48.814;9.318;2023-02-28T06:38:37;10.83;;;9.30;;
1336;SDS011;662;48.814;9.318;2023-02-28T06:41:04;11.70;;;9.27;;
1336;SDS011;662;48.814;9.318;2023-02-28T06:43:33;10.30;;;9.23;;
1336;SDS011;662;48.814;9.318;2023-02-28T06:46:01;9.90;;;9.00;;
1336;SDS011;662;48.814;9.318;2023-02-28T06:48:28;10.07;;;9.07;;
1336;SDS011;662;48.814;9.318;2023-02-28T06:51:08;10.90;;;9.40;;
1336;SDS011;662;48.814;9.318;2023-02-28T06:53:35;16.47;;;9.60;;
1336;SDS011;662;48.814;9.318;2023-02-28T06:56:08;11.60;;;8.80;;
1336;SDS011;662;48.814;9.318;2023-02-28T06:58:36;17.67;;;10.30;;
1336;SDS011;662;48.814;9.318;2023-02-28T07:01:02;11.97;;;9.97;;
1336;SDS011;662;48.814;9.318;2023-02-28T07:03:28;10.30;;;9.20;;
1336;SDS011;662;48.814;9.318;2023-02-28T07:05:54;10.33;;;9.43;;
1336;SDS011;662;48.814;9.318;2023-02-28T07:08:22;13.13;;;9.73;;
1336;SDS011;662;48.814;9.318;2023-02-28T07:10:51;11.03;;;10.03;;
1336;SDS011;662;48.814;9.318;2023-02-28T07:13:17;22.00;;;14.20;;
1336;SDS011;662;48.814;9.318;2023-02-28T07:15:42;13.87;;;12.30;;
1336;SDS011;662;48.814;9.318;2023-02-28T07:18:08;11.40;;;10.17;;
1336;SDS011;662;48.814;9.318;2023-02-28T07:20:34;10.80;;;9.77;;
1336;SDS011;662;48.814;9.318;2023-02-28T07:23:00;10.27;;;9.37;;
1336;SDS011;662;48.814;9.318;2023-02-28T07:25:26;10.30;;;9.40;;
1336;SDS011;662;48.814;9.318;2023-02-28T07:27:53;10.50;;;9.50;;
1336;SDS011;662;48.814;9.318;2023-02-28T07:30:20;11.53;;;9.80;;
1336;SDS011;662;48.814;9.318;2023-02-28T07:32:45;11.33;;;10.23;;
1336;SDS011;662;48.814;9.318;2023-02-28T07:35:11;11.37;;;10.30;;
1336;SDS011;662;48.814;9.318;2023-02-28T07:37:37;10.80;;;9.83;;
1336;SDS011;662;48.814;9.318;2023-02-28T07:40:04;11.00;;;9.90;;
1336;SDS011;662;48.814;9.318;2023-02-28T07:42:33;11.90;;;10.70;;
1336;SDS011;662;48.814;9.318;2023-02-28T07:44:59;11.67;;;10.47;;
1336;SDS011;662;48.814;9.318;2023-02-28T07:47:25;10.97;;;9.87;;
1336;SDS011;662;48.814;9.318;2023-02-28T07:49:51;11.10;;;10.07;;
1336;SDS011;662;48.814;9.318;2023-02-28T07:52:17;10.73;;;9.73;;
1336;SDS011;662;48.814;9.318;2023-02-28T07:54:42;11.37;;;10.27;;
1336;SDS011;662;48.814;9.318;2023-02-28T07:57:08;11.53;;;9.97;;
1336;SDS011;662;48.814;9.318;2023-02-28T07:59:33;10.87;;;9.77;;
1336;SDS011;662;48.814;9.318;2023-02-28T08:01:59;11.10;;;10.00;;
1336;SDS011;662;48.814;9.318;2023-02-28T08:04:25;11.60;;;10.40;;
1336;SDS011;662;48.814;9.318;2023-02-28T08:06:51;11.30;;;10.13;;
1336;SDS011;662;48.814;9.318;2023-02-28T08:09:21;12.00;;;10.90;;
1336;SDS011;662;48.814;9.318;2023-02-28T08:11:47;12.23;;;10.97;;
1336;SDS011;662;48.814;9.318;2023-02-28T08:14:12;11.83;;;10.57;;
1336;SDS011;662;48.814;9.318;2023-02-28T08:16:38;11.00;;;9.90;;
1336;SDS011;662;48.814;9.318;2023-02-28T08:19:04;11.83;;;10.73;;
1336;SDS011;662;48.814;9.318;2023-02-28T08:21:29;11.40;;;10.30;;
1336;SDS011;662;48.814;9.318;2023-02-28T08:23:55;11.90;;;10.70;;
1336;SDS011;662;48.814;9.318;2023-02-28T08:26:21;11.70;;;10.70;;
1336;SDS011;662;48.814;9.318;2023-02-28T08:28:48;12.13;;;10.53;;
1336;SDS011;662;48.814;9.318;2023-02-28T08:31:14;11.47;;;10.30;;
1336;SDS011;662;48.814;9.318;2023-02-28T08:33:41;23.80;;;12.17;;
1336;SDS011;662;48.814;9.318;2023-02-28T08:36:09;14.43;;;9.87;;
1336;SDS011;662;48.814;9.318;2023-02-28T08:38:36;11.87;;;10.57;;
1336;SDS011;662;48.814;9.318;2023-02-28T08:41:06;12.10;;;10.73;;
1336;SDS011;662;48.814;9.318;2023-02-28T08:43:33;11.40;;;10.20;;
1336;SDS011;662;48.814;9.318;2023-02-28T08:46:00;11.53;;;10.30;;
1336;SDS011;662;48.814;9.318;2023-02-28T08:48:26;12.47;;;11.17;;
1336;SDS011;662;48.814;9.318;2023-02-28T08:50:57;13.03;;;11.23;;
1336;SDS011;662;48.814;9.318;2023-02-28T08:53:25;14.50;;;11.80;;
1336;SDS011;662;48.814;9.318;2023-02-28T08:55:57;11.87;;;10.67;;
1336;SDS011;662;48.814;9.318;2023-02-28T08:58:27;11.43;;;10.23;;
1336;SDS011;662;48.814;9.318;2023-02-28T09:00:53;12.27;;;10.20;;
1336;SDS011;662;48.814;9.318;2023-02-28T09:03:19;11.20;;;10.10;;
1336;SDS011;662;48.814;9.318;2023-02-28T09:05:52;12.53;;;10.13;;
1336;SDS011;662;48.814;9.318;2023-02-28T09:08:18;13.30;;;10.37;;
1336;SDS011;662;48.814;9.318;2023-02-28T09:10:43;11.53;;;10.43;;
1336;SDS011;662;48.814;9.318;2023-02-28T09:13:09;11.17;;;10.03;;
1336;SDS011;662;48.814;9.318;2023-02-28T09:15:36;11.90;;;10.60;;
1336;SDS011;662;48.814;9.318;2023-02-28T09:18:02;12.40;;;10.60;;
1336;SDS011;662;48.814;9.318;2023-02-28T09:20:28;11.63;;;10.33;;
1336;SDS011;662;48.814;9.318;2023-02-28T09:22:54;11.13;;;10.03;;
1336;SDS011;662;48.814;9.318;2023-02-28T09:25:19;13.50;;;10.57;;
1336;SDS011;662;48.814;9.318;2023-02-28T09:27:45;13.00;;;11.07;;
1336;SDS011;662;48.814;9.318;2023-02-28T09:30:11;13.40;;;10.50;;
1336;SDS011;662;48.814;9.318;2023-02-28T09:32:37;11.57;;;10.37;;
1336;SDS011;662;48.814;9.318;2023-02-28T09:35:03;11.77;;;10.57;;
1336;SDS011;662;48.814;9.318;2023-02-28T09:37:29;11.73;;;10.50;;
1336;SDS011;662;48.814;9.318;2023-02-28T09:39:56;12.37;;;11.10;;
1336;SDS011;662;48.814;9.318;2023-02-28T09:42:24;14.43;;;11.10;;
1336;SDS011;662;48.814;9.318;2023-02-28T09:44:55;13.27;;;10.47;;
1336;SDS011;662;48.814;9.318;2023-02-28T09:47:30;12.03;;;10.80;;
1336;SDS011;662;48.814;9.318;2023-02-28T09:50:48;12.20;;;10.90;;
1336;SDS011;662;48.814;9.318;2023-02-28T09:52:58;12.27;;;11.07;;
1336;SDS011;662;48.814;9.318;2023-02-28T09:55:37;12.07;;;10.87;;
1336;SDS011;662;48.814;9.318;2023-02-28T10:04:31;11.97;;;10.77;;
1336;SDS011;662;48.814;9.318;2023-02-28T10:09:49;12.73;;;11.37;;
1336;SDS011;662;48.814;9.318;2023-02-28T10:12:18;11.47;;;10.37;;
1336;SDS011;662;48.814;9.318;2023-02-28T10:14:47;13.03;;;11.20;;
1336;SDS011;662;48.814;9.318;2023-02-28T10:17:21;12.13;;;10.93;;
1336;SDS011;662;48.814;9.318;2023-02-28T10:19:56;12.33;;;10.83;;
1336;SDS011;662;48.814;9.318;2023-02-28T10:22:27;12.87;;;10.93;;
1336;SDS011;662;48.814;9.318;2023-02-28T10:25:17;12.70;;;11.40;;
1336;SDS011;662;48.814;9.318;2023-02-28T10:27:49;12.30;;;11.00;;
1336;SDS011;662;48.814;9.318;2023-02-28T10:30:15;10.93;;;9.87;;
1336;SDS011;662;48.814;9.318;2023-02-28T10:32:43;14.40;;;11.17;;
1336;SDS011;662;48.814;9.318;2023-02-28T10:37:47;13.07;;;11.37;;
1336;SDS011;662;48.814;9.318;2023-02-28T10:42:50;12.30;;;11.00;;
1336;SDS011;662;48.814;9.318;2023-02-28T10:45:23;12.97;;;10.50;;
1336;SDS011;662;48.814;9.318;2023-02-28T10:47:57;12.10;;;10.80;;
1336;SDS011;662;48.814;9.318;2023-02-28T10:50:41;12.00;;;10.73;;
1336;SDS011;662;48.814;9.318;2023-02-28T10:58:57;13.93;;;10.97;;
1336;SDS011;662;48.814;9.318;2023-02-28T11:04:01;16.03;;;12.20;;
1336;SDS011;662;48.814;9.318;2023-02-28T11:06:31;14.03;;;11.50;;
1336;SDS011;662;48.814;9.318;2023-02-28T11:08:59;13.70;;;11.40;;
1336;SDS011;662;48.814;9.318;2023-02-28T11:11:28;12.63;;;11.43;;
1336;SDS011;662;48.814;9.318;2023-02-28T11:13:57;14.80;;;10.90;;
1336;SDS011;662;48.814;9.318;2023-02-28T11:16:33;15.67;;;12.70;;
1336;SDS011;662;48.814;9.318;2023-02-28T11:19:02;14.60;;;11.77;;
1336;SDS011;662;48.814;9.318;2023-02-28T11:21:35;12.23;;;10.97;;
1336;SDS011;662;48.814;9.318;2023-02-28T11:24:06;12.33;;;10.97;;
1336;SDS011;662;48.814;9.318;2023-02-28T11:26:48;12.60;;;11.30;;
1336;SDS011;662;48.814;9.318;2023-02-28T11:29:30;11.83;;;10.60;;
1336;SDS011;662;48.814;9.318;2023-02-28T11:32:04;14.20;;;11.30;;
1336;SDS011;662;48.814;9.318;2023-02-28T11:34:37;15.77;;;11.50;;
1336;SDS011;662;48.814;9.318;2023-02-28T11:37:03;11.70;;;10.50;;
1336;SDS011;662;48.814;9.318;2023-02-28T11:39:30;11.20;;;9.37;;
1336;SDS011;662;48.814;9.318;2023-02-28T11:44:52;11.00;;;9.90;;
1336;SDS011;662;48.814;9.318;2023-02-28T11:47:32;11.33;;;10.10;;
1336;SDS011;662;48.814;9.318;2023-02-28T11:52:53;11.67;;;10.57;;
1336;SDS011;662;48.814;9.318;2023-02-28T11:55:24;10.83;;;9.73;;
1336;SDS011;662;48.814;9.318;2023-02-28T11:58:05;10.80;;;9.70;;
1336;SDS011;662;48.814;9.318;2023-02-28T12:01:11;13.20;;;10.07;;
1336;SDS011;662;48.814;9.318;2023-02-28T12:06:40;15.17;;;12.57;;
1336;SDS011;662;48.814;9.318;2023-02-28T12:17:25;10.90;;;9.87;;
1336;SDS011;662;48.814;9.318;2023-02-28T12:19:58;10.30;;;9.30;;
1336;SDS011;662;48.814;9.318;2023-02-28T12:29:01;10.30;;;8.67;;
1336;SDS011;662;48.814;9.318;2023-02-28T12:31:40;10.20;;;9.20;;
1336;SDS011;662;48.814;9.318;2023-02-28T12:34:16;10.73;;;9.63;;
1336;SDS011;662;48.814;9.318;2023-02-28T12:36:46;10.70;;;9.43;;
1336;SDS011;662;48.814;9.318;2023-02-28T12:42:03;11.07;;;9.80;;
1336;SDS011;662;48.814;9.318;2023-02-28T12:44:35;11.80;;;10.50;;
1336;SDS011;662;48.814;9.318;2023-02-28T12:47:12;10.63;;;9.60;;
1336;SDS011;662;48.814;9.318;2023-02-28T12:55:07;10.30;;;9.30;;
1336;SDS011;662;48.814;9.318;2023-02-28T13:00:36;11.93;;;10.00;;
1336;SDS011;662;48.814;9.318;2023-02-28T13:03:19;10.70;;;9.50;;
1336;SDS011;662;48.814;9.318;2023-02-28T13:11:38;11.37;;;10.27;;
1336;SDS011;662;48.814;9.318;2023-02-28T13:16:53;10.40;;;9.40;;
1336;SDS011;662;48.814;9.318;2023-02-28T13:19:23;11.33;;;9.17;;
1336;SDS011;662;48.814;9.318;2023-02-28T13:21:57;9.90;;;8.80;;
1336;SDS011;662;48.814;9.318;2023-02-28T13:24:46;10.10;;;9.10;;
1336;SDS011;662;48.814;9.318;2023-02-28T13:29:40;20.33;;;9.30;;
1336;SDS011;662;48.814;9.318;2023-02-28T13:34:39;9.67;;;8.77;;
1336;SDS011;662;48.814;9.318;2023-02-28T13:39:55;10.40;;;9.30;;
1336;SDS011;662;48.814;9.318;2023-02-28T13:52:55;9.50;;;8.53;;
1336;SDS011;662;48.814;9.318;2023-02-28T13:58:43;10.00;;;9.07;;
1336;SDS011;662;48.814;9.318;2023-02-28T14:01:47;9.80;;;8.80;;
1336;SDS011;662;48.814;9.318;2023-02-28T14:07:30;9.53;;;8.63;;
1336;SDS011;662;48.814;9.318;2023-02-28T14:10:02;9.87;;;8.87;;
1336;SDS011;662;48.814;9.318;2023-02-28T14:18:03;8.83;;;8.03;;
1336;SDS011;662;48.814;9.318;2023-02-28T14:20:39;9.70;;;8.70;;
1336;SDS011;662;48.814;9.318;2023-02-28T14:26:12;8.83;;;8.03;;
1336;SDS011;662;48.814;9.318;2023-02-28T14:28:50;10.70;;;9.60;;
1336;SDS011;662;48.814;9.318;2023-02-28T14:31:38;10.13;;;9.20;;
1336;SDS011;662;48.814;9.318;2023-02-28T14:34:48;10.00;;;9.07;;
1336;SDS011;662;48.814;9.318;2023-02-28T14:37:11;11.00;;;9.90;;
1336;SDS011;662;48.814;9.318;2023-02-28T14:39:41;9.70;;;8.80;;
1336;SDS011;662;48.814;9.318;2023-02-28T14:42:26;10.77;;;8.87;;
1336;SDS011;662;48.814;9.318;2023-02-28T14:44:55;12.20;;;9.07;;
1336;SDS011;662;48.814;9.318;2023-02-28T14:47:21;9.57;;;8.67;;
1336;SDS011;662;48.814;9.318;2023-02-28T14:49:52;10.10;;;9.10;;
1336;SDS011;662;48.814;9.318;2023-02-28T14:52:24;11.10;;;9.97;;
1336;SDS011;662;48.814;9.318;2023-02-28T14:54:54;12.17;;;10.00;;
1336;SDS011;662;48.814;9.318;2023-02-28T14:57:26;13.60;;;9.73;;
1336;SDS011;662;48.814;9.318;2023-02-28T14:59:57;11.37;;;9.40;;
1336;SDS011;662;48.814;9.318;2023-02-28T15:02:33;9.50;;;8.53;;
1336;SDS011;662;48.814;9.318;2023-02-28T15:05:50;10.37;;;9.27;;
1336;SDS011;662;48.814;9.318;2023-02-28T15:10:57;10.50;;;9.50;;
1336;SDS011;662;48.814;9.318;2023-02-28T15:16:16;10.60;;;9.50;;
1336;SDS011;662;48.814;9.318;2023-02-28T15:18:57;13.87;;;11.10;;
1336;SDS011;662;48.814;9.318;2023-02-28T15:21:32;12.03;;;10.70;;
1336;SDS011;662;48.814;9.318;2023-02-28T15:24:04;13.80;;;10.50;;
1336;SDS011;662;48.814;9.318;2023-02-28T15:26:49;12.70;;;10.47;;
1336;SDS011;662;48.814;9.318;2023-02-28T15:29:21;16.73;;;10.70;;
1336;SDS011;662;48.814;9.318;2023-02-28T15:31:50;13.70;;;10.43;;
1336;SDS011;662;48.814;9.318;2023-02-28T15:34:21;11.73;;;10.50;;
1336;SDS011;662;48.814;9.318;2023-02-28T15:36:51;12.07;;;10.83;;
1336;SDS011;662;48.814;9.318;2023-02-28T15:39:21;12.43;;;11.23;;
1336;SDS011;662;48.814;9.318;2023-02-28T15:41:49;11.97;;;10.67;;
1336;SDS011;662;48.814;9.318;2023-02-28T15:46:58;11.63;;;10.40;;
1336;SDS011;662;48.814;9.318;2023-02-28T15:49:24;12.00;;;10.80;;
1336;SDS011;662;48.814;9.318;2023-02-28T15:51:51;11.90;;;10.70;;
1336;SDS011;662;48.814;9.318;2023-02-28T15:54:24;12.37;;;11.07;;
1336;SDS011;662;48.814;9.318;2023-02-28T15:56:55;11.93;;;10.77;;
1336;SDS011;662;48.814;9.318;2023-02-28T15:59:23;12.70;;;10.70;;
1336;SDS011;662;48.814;9.318;2023-02-28T16:02:02;13.43;;;10.20;;
1336;SDS011;662;48.814;9.318;2023-02-28T16:04:34;13.83;;;10.30;;
1336;SDS011;662;48.814;9.318;2023-02-28T16:07:04;16.17;;;10.47;;
1336;SDS011;662;48.814;9.318;2023-02-28T16:09:30;12.00;;;10.80;;
1336;SDS011;662;48.814;9.318;2023-02-28T16:11:59;12.27;;;9.97;;
1336;SDS011;662;48.814;9.318;2023-02-28T16:14:27;12.07;;;10.77;;
1336;SDS011;662;48.814;9.318;2023-02-28T16:17:01;12.90;;;11.60;;
1336;SDS011;662;48.814;9.318;2023-02-28T16:19:35;12.07;;;10.73;;
1336;SDS011;662;48.814;9.318;2023-02-28T16:22:01;11.10;;;9.93;;
1336;SDS011;662;48.814;9.318;2023-02-28T16:24:27;12.97;;;11.20;;
1336;SDS011;662;48.814;9.318;2023-02-28T16:26:53;12.00;;;10.73;;
1336;SDS011;662;48.814;9.318;2023-02-28T16:29:28;14.27;;;12.10;;
1336;SDS011;662;48.814;9.318;2023-02-28T16:31:57;13.60;;;12.20;;
1336;SDS011;662;48.814;9.318;2023-02-28T16:34:23;14.37;;;10.70;;
1336;SDS011;662;48.814;9.318;2023-02-28T16:36:50;12.77;;;11.10;;
1336;SDS011;662;48.814;9.318;2023-02-28T16:39:15;12.97;;;10.90;;
1336;SDS011;662;48.814;9.318;2023-02-28T16:41:42;13.03;;;10.33;;
1336;SDS011;662;48.814;9.318;2023-02-28T16:44:10;12.90;;;11.43;;
1336;SDS011;662;48.814;9.318;2023-02-28T16:46:45;12.80;;;11.57;;
1336;SDS011;662;48.814;9.318;2023-02-28T16:49:11;12.80;;;11.43;;
1336;SDS011;662;48.814;9.318;2023-02-28T16:51:37;13.40;;;10.97;;
1336;SDS011;662;48.814;9.318;2023-02-28T16:54:03;12.93;;;11.03;;
1336;SDS011;662;48.814;9.318;2023-02-28T16:56:29;11.20;;;10.20;;
1336;SDS011;662;48.814;9.318;2023-02-28T16:58:59;13.00;;;11.70;;
1336;SDS011;662;48.814;9.318;2023-02-28T17:01:26;15.27;;;12.37;;
1336;SDS011;662;48.814;9.318;2023-02-28T17:03:52;12.07;;;10.90;;
1336;SDS011;662;48.814;9.318;2023-02-28T17:06:26;12.83;;;11.37;;
1336;SDS011;662;48.814;9.318;2023-02-28T17:08:56;30.87;;;22.57;;
1336;SDS011;662;48.814;9.318;2023-02-28T17:11:23;16.17;;;14.00;;
1336;SDS011;662;48.814;9.318;2023-02-28T17:13:50;12.70;;;11.40;;
1336;SDS011;662;48.814;9.318;2023-02-28T17:16:22;12.87;;;11.50;;
1336;SDS011;662;48.814;9.318;2023-02-28T17:18:51;13.57;;;11.87;;
1336;SDS011;662;48.814;9.318;2023-02-28T17:21:19;17.60;;;13.03;;
1336;SDS011;662;48.814;9.318;2023-02-28T17:23:44;14.87;;;12.20;;
1336;SDS011;662;48.814;9.318;2023-02-28T17:26:14;12.43;;;11.30;;
1336;SDS011;662;48.814;9.318;2023-02-28T17:28:42;13.83;;;12.13;;
1336;SDS011;662;48.814;9.318;2023-02-28T17:31:08;13.87;;;11.80;;
1336;SDS011;662;48.814;9.318;2023-02-28T17:33:34;13.10;;;11.80;;
1336;SDS011;662;48.814;9.318;2023-02-28T17:36:00;14.90;;;12.50;;
1336;SDS011;662;48.814;9.318;2023-02-28T17:38:26;12.60;;;11.30;;
1336;SDS011;662;48.814;9.318;2023-02-28T17:40:52;14.23;;;12.73;;
1336;SDS011;662;48.814;9.318;2023-02-28T17:43:22;13.47;;;11.93;;
1336;SDS011;662;48.814;9.318;2023-02-28T17:45:48;16.00;;;13.33;;
1336;SDS011;662;48.814;9.318;2023-02-28T17:48:14;14.67;;;12.50;;
1336;SDS011;662;48.814;9.318;2023-02-28T17:50:40;14.80;;;12.40;;